Etusivu
METAR-TAF:

METAR-TAF

Lentoasemat :

Evelyn Sharp Field

Ord, Nebraska, Yhdysvallat

Leveyspiiri: 41-37-27N, Pituuspiiri: 098-57-09W, korkeus merenpinnasta: 631 m

Tämänhetkinen sää

Tämä raportti tehtiin 1 tunti ja 6 minuuttia sitten, kello 11.53 UTC
Tuuli 8 kn pohjoisesta
Lämpötila 15°C
Kosteus 72%
Ilmanpaine 1023 hPa
Näkyvyys: 16.1 km
Pilvistä 10000 ft:n korkeudessa

METAR: KODX 191153Z AUTO 35008KT 10SM OVC100 15/10 A3022 RMK AO2 SLP229 60001 70001 T01500100 10172 20150 53027

Aika: 07:59 (12:59 UTC)


TAF: puuttuu

Säähavainnot ja -ennusteet yli 4000 lentoasemalta (METAR- ja TAF-raportit).

Käytössä olevat sääasemat on merkitty karttaan keltaisilla ja punaisilla pisteillä.

Aseta hiiri pisteen päälle nähdäksesi sääaseman nimen.

Klikkaa sitten nähdäksesi säähavainnot ja -ennusteet.

Kartan vaihtaminen: klikkaa mustalla rastilla varustettuja vihreitä pisteitä, niin voit zoomata sisään; viivalla varustettua vihreää pistettä, niin voit zoomata ulos tai vihreitä nuolia, niin pääset viereisille kartoille.


METAR-TAF: